Aviation weather information 2019-10-13 20:09 UTC

TAF(FCEO32)
FCEO32 EETN 131400 AAA
TAF AMD EEKE 131800Z 1315/1321 CNL=
FCEO32 EETN 132000
TAF EETU 132000Z 1321/1403 VRB02KT 6000 SCT007 TEMPO 1321/1402
     0500 BCFG BKN002 BECMG 1402/1403 12008KT 5000 RA BKN020=

TAF(FTEO31)
FTEO31 EETN 131700
TAF EETN 131700Z 1318/1418 25007KT 9999 SCT020 PROB40 TEMPO
     1320/1402 VRB02KT 2000 BR BKN005 BECMG 1402/1404 13010KT TEMPO
     1402/1412 4000 SHRA BKN010 SCT020CB TEMPO 1412/1418 03015G25KT
     2000 SHRA BR BKN003 BKN015CB=

TAF(FTEO33)
FTEO33 EEEI 131730
TAF EEEI 131730Z 1318/1418 24006KT 9999 SCT020 TEMPO 1321/1403 VRB02KT 2000 BR MIFG BKN003 BECMG 1403/1405 11012KT BKN006 TEMPO 1403/1412 3000 SHRA BKN005 SCT020TCU BKN022 TEMPO 1408/1412 15014G24KT BECMG 1412/1414 02016G26KT=

Weather observation (METAR/SPECI)
METAR EETN 131950Z VRB02KT 9999 FEW021 05/04 Q1012 NOSIG=
METAR EEEI 131950Z AUTO 20004KT 9999 FEW002 05/04 Q1012=
METAR EETU 131950Z 23006KT CAVOK 07/06 Q1013=
METAR EEPU 131950Z NIL=
SPECI EEKE 132006Z AUTO 00000KT 8000NDV R17/P2000N R35/P2000N BR NSC
05/05 Q1013=
METAR EEKA 131950Z NIL=